This is the latest recevied weather packets stored in our database for station/object KNQA. If no packets are shown the sender has not sent any weather packets the latest 10 day(s).
| Time | Temp. | Humidity | Pressure | Rain* | Wind** | Luminosity | Snow |
|---|---|---|---|---|---|---|---|
| 1777367018 | 20° C | 93% | 1012.9 hPa | 2.54 mm | - | - | - |
| 1777366417 | 20° C | 93% | 1016.6 hPa | - | - | - | - |
| 1777365815 | 20° C | 93% | 1016.6 hPa | - | - | - | - |
| 1777365218 | 18.89° C | 100% | 1012.2 hPa | - | - | - | - |
| 1777364620 | 18.89° C | 100% | 1012.2 hPa | - | - | - | - |
| 1777364016 | 20° C | 93% | 1011.2 hPa | - | - | - | - |
| 1777363417 | 20° C | 93% | 1011.2 hPa | - | - | - | - |
| 1777362820 | 21.67° C | 73% | 1016.6 hPa | - | - | - | - |
| 1777362221 | 21.67° C | 73% | 1016.6 hPa | - | - | - | - |
| 1777361619 | 20.56° C | 83% | 1016.6 hPa | - | - | - | - |
| 1777361021 | 20.56° C | 83% | 1012.2 hPa | - | - | - | - |
| 1777360417 | 25° C | 78% | 1011.9 hPa | - | - | - | - |
| 1777359818 | 25° C | 78% | 1011.9 hPa | - | - | - | - |
| 1777359216 | 25° C | 83% | 1011.5 hPa | - | - | - | - |
| 1777358614 | 25° C | 83% | 1011.5 hPa | - | - | - | - |
| 1777358016 | 25° C | 83% | 1011.5 hPa | - | - | - | - |
| 1777357417 | 25° C | 83% | 1011.5 hPa | - | - | - | - |
| 1777356815 | 25° C | 83% | 1011.5 hPa | - | - | - | - |
| 1777356213 | 25° C | 83% | 1011.5 hPa | - | - | - | - |
| 1777355615 | 25° C | 83% | 1011.5 hPa | - | - | - | - |
| 1777355013 | 25° C | 88% | 1010.5 hPa | - | - | - | - |
| 1777354420 | 25° C | 88% | 1010.5 hPa | - | - | - | - |
| 1777353818 | 25° C | 88% | 1010.5 hPa | - | - | - | - |
| 1777353216 | 25° C | 88% | 1010.5 hPa | - | - | - | - |
| 1777352615 | 25° C | 88% | 1010.5 hPa | - | - | - | - |
* Rain latest hour (hover to see other rain measurements)
** Current wind speed in m/s (hover to see current wind gust speed)